createdAt,value
2023-05-08T00:00:14.312Z,12.9159
2023-05-08T00:01:14.339Z,12.9177
2023-05-08T00:02:14.974Z,12.9191
2023-05-08T00:03:15.472Z,12.9199
2023-05-08T00:04:16.506Z,12.9210
2023-05-08T00:06:17.484Z,12.9248
2023-05-08T00:07:18.249Z,12.9264
2023-05-08T00:08:19.736Z,12.9285
2023-05-08T00:09:20.251Z,12.9306
2023-05-08T00:10:20.982Z,12.9320
2023-05-08T00:11:22.212Z,12.9329
2023-05-08T00:16:05.150Z,12.9160
2023-05-08T00:17:05.309Z,12.9213
2023-05-08T00:18:06.824Z,12.9240
2023-05-08T00:19:07.911Z,12.9229
2023-05-08T00:20:09.036Z,12.9234
2023-05-08T00:21:09.164Z,12.9229
2023-05-08T00:22:09.886Z,12.9218
2023-05-08T00:23:10.998Z,12.9181
2023-05-08T00:24:12.323Z,12.9152
2023-05-08T00:25:12.578Z,12.9112
2023-05-08T00:26:13.711Z,12.9054
2023-05-08T00:27:14.239Z,12.8966
2023-05-08T00:28:15.135Z,12.8885
2023-05-08T00:29:15.195Z,12.8810
2023-05-08T00:30:16.907Z,12.8779
2023-05-08T00:31:16.634Z,12.8750
2023-05-08T00:32:16.965Z,12.8726
2023-05-08T00:33:18.909Z,12.8702
2023-05-08T00:36:43.723Z,12.8545
2023-05-08T00:37:43.811Z,12.8522
2023-05-08T00:38:44.649Z,12.8492
2023-05-08T00:39:45.484Z,12.8462
2023-05-08T00:40:46.168Z,12.8447
2023-05-08T00:41:47.112Z,12.8437
2023-05-08T00:42:48.228Z,12.8436
2023-05-08T00:43:49.022Z,12.8439
2023-05-08T00:44:50.799Z,12.8425
2023-05-08T00:45:51.731Z,12.8406
2023-05-08T00:46:52.708Z,12.8354
2023-05-08T00:47:53.710Z,12.8311
2023-05-08T00:48:54.390Z,12.8270
2023-05-08T00:49:56.387Z,12.8223
2023-05-08T00:51:01.915Z,12.8178
2023-05-08T00:51:59.208Z,12.8152
2023-05-08T00:53:00.021Z,12.8119
2023-05-08T00:54:01.225Z,12.8081
2023-05-08T00:55:02.414Z,12.8037
2023-05-08T00:56:03.751Z,12.8010
2023-05-08T00:57:05.133Z,12.7993
2023-05-08T00:58:06.000Z,12.7980
2023-05-08T00:59:07.289Z,12.7959
2023-05-08T01:00:08.222Z,12.7933
2023-05-08T01:01:09.574Z,12.7887
2023-05-08T01:02:11.344Z,12.7836
2023-05-08T01:04:12.747Z,12.7773
2023-05-08T01:05:12.998Z,12.7768
2023-05-08T01:08:03.853Z,12.7672
2023-05-08T01:09:04.477Z,12.7688
2023-05-08T01:10:04.561Z,12.7703
2023-05-08T01:11:06.145Z,12.7721
2023-05-08T01:12:06.110Z,12.7731
2023-05-08T01:13:06.213Z,12.7765
2023-05-08T01:14:06.814Z,12.7791
2023-05-08T01:15:08.435Z,12.7822
2023-05-08T01:16:09.473Z,12.7844
2023-05-08T01:17:09.826Z,12.7848
2023-05-08T01:18:09.847Z,12.7870
2023-05-08T01:19:10.870Z,12.7904
2023-05-08T01:20:12.159Z,12.7952
2023-05-08T01:21:12.213Z,12.7994
2023-05-08T01:22:12.641Z,12.8025
2023-05-08T01:23:14.132Z,12.8057
2023-05-08T01:24:15.012Z,12.8093
2023-05-08T01:25:16.011Z,12.8131
2023-05-08T01:26:16.391Z,12.8170
2023-05-08T01:27:17.393Z,12.8188
2023-05-08T01:28:17.515Z,12.8213
2023-05-08T01:29:18.989Z,12.8238
2023-05-08T01:30:19.133Z,12.8219
2023-05-08T01:32:19.057Z,12.8160
2023-05-08T01:33:20.486Z,12.8124
2023-05-08T01:36:21.619Z,12.8068
2023-05-08T01:37:22.282Z,12.8026
2023-05-08T01:38:22.631Z,12.7990
2023-05-08T01:39:23.549Z,12.7954
2023-05-08T01:40:24.098Z,12.7923
2023-05-08T01:41:25.608Z,12.7916
2023-05-08T01:42:26.365Z,12.7880
2023-05-08T01:43:27.434Z,12.7827
2023-05-08T01:44:28.507Z,12.7786
2023-05-08T01:45:29.588Z,12.7770
2023-05-08T01:46:30.702Z,12.7749
2023-05-08T01:51:02.068Z,12.7550
2023-05-08T01:52:02.103Z,12.7558
2023-05-08T01:53:03.190Z,12.7538
2023-05-08T01:55:04.653Z,12.7462
2023-05-08T01:56:04.738Z,12.7430
2023-05-08T01:57:06.068Z,12.7406
2023-05-08T01:58:06.789Z,12.7412
2023-05-08T01:59:06.793Z,12.7403
2023-05-08T02:00:07.974Z,12.7402
2023-05-08T02:02:08.391Z,12.7433
2023-05-08T02:03:08.762Z,12.7451
2023-05-08T02:04:10.331Z,12.7460
2023-05-08T02:06:10.886Z,12.7477
2023-05-08T02:07:11.370Z,12.7495
2023-05-08T02:08:12.668Z,12.7522
2023-05-08T02:09:13.177Z,12.7548
2023-05-08T02:10:14.362Z,12.7561
2023-05-08T02:12:14.492Z,12.7537
2023-05-08T02:13:16.308Z,12.7516
2023-05-08T02:14:16.963Z,12.7478
2023-05-08T02:15:18.312Z,12.7440
2023-05-08T02:16:19.426Z,12.7391
2023-05-08T02:25:29.223Z,12.7517
2023-05-08T02:26:29.866Z,12.7564
2023-05-08T02:27:30.369Z,12.7605
2023-05-08T02:28:31.273Z,12.7630
2023-05-08T02:29:32.291Z,12.7644
2023-05-08T02:30:32.579Z,12.7668
2023-05-08T02:31:33.690Z,12.7699
2023-05-08T02:32:34.477Z,12.7713
2023-05-08T02:33:35.140Z,12.7722
2023-05-08T02:34:35.223Z,12.7751
2023-05-08T02:35:35.171Z,12.7780
2023-05-08T02:36:35.228Z,12.7819
2023-05-08T02:37:36.139Z,12.7858
2023-05-08T02:38:38.683Z,12.7904
2023-05-08T02:39:38.625Z,12.7932
2023-05-08T02:40:39.842Z,12.7986
2023-05-08T02:41:40.094Z,12.8030
2023-05-08T02:42:41.294Z,12.8037
2023-05-08T02:43:43.443Z,12.8047
2023-05-08T02:44:43.616Z,12.8053
2023-05-08T02:45:44.005Z,12.8076
2023-05-08T02:46:45.254Z,12.8116
2023-05-08T02:47:44.869Z,12.8135
2023-05-08T02:48:45.407Z,12.8149
2023-05-08T02:49:46.257Z,12.8178
2023-05-08T02:50:47.894Z,12.8219
2023-05-08T02:51:48.649Z,12.8251
2023-05-08T02:52:48.295Z,12.8285
2023-05-08T02:53:49.569Z,12.8335
2023-05-08T02:54:49.846Z,12.8373
2023-05-08T02:55:50.090Z,12.8424
2023-05-08T02:56:50.359Z,12.8457
2023-05-08T02:57:51.005Z,12.8441
2023-05-08T02:58:51.917Z,12.8421
2023-05-08T02:59:52.680Z,12.8419
2023-05-08T03:00:52.719Z,12.8430
2023-05-08T03:01:53.836Z,12.8460
2023-05-08T03:02:53.971Z,12.8498
2023-05-08T03:03:55.054Z,12.8527
2023-05-08T03:04:55.984Z,12.8576
2023-05-08T03:05:56.737Z,12.8631
2023-05-08T03:06:57.400Z,12.8671
2023-05-08T03:07:57.951Z,12.8692
2023-05-08T03:08:58.009Z,12.8730
2023-05-08T03:09:58.931Z,12.8773
2023-05-08T03:10:59.358Z,12.8804
2023-05-08T03:11:59.574Z,12.8852
2023-05-08T03:13:00.292Z,12.8886
2023-05-08T03:14:01.274Z,12.8902
2023-05-08T03:19:04.661Z,12.9015
2023-05-08T03:20:04.836Z,12.9001
2023-05-08T03:21:04.894Z,12.8948
2023-05-08T03:22:06.008Z,12.8906
2023-05-08T03:23:07.490Z,12.8863
2023-05-08T03:24:07.849Z,12.8817
2023-05-08T03:25:08.272Z,12.8781
2023-05-08T03:26:09.768Z,12.8766
2023-05-08T03:29:10.790Z,12.8738
2023-05-08T03:33:12.765Z,12.8796
2023-05-08T03:34:13.530Z,12.8828
2023-05-08T03:35:14.715Z,12.8871
2023-05-08T03:36:15.597Z,12.8917
2023-05-08T03:37:16.104Z,12.8969
2023-05-08T03:38:17.433Z,12.9023
2023-05-08T03:39:17.857Z,12.9072
2023-05-08T03:40:17.910Z,12.9115
2023-05-08T03:41:19.118Z,12.9141
2023-05-08T03:42:20.254Z,12.9177
2023-05-08T03:43:21.019Z,12.9220
2023-05-08T03:44:21.035Z,12.9247
2023-05-08T03:45:22.100Z,12.9280
2023-05-08T03:46:23.567Z,12.9301
2023-05-08T03:47:23.780Z,12.9334
2023-05-08T03:48:24.123Z,12.9375
2023-05-08T03:49:25.990Z,12.9414
2023-05-08T03:50:26.811Z,12.9444
2023-05-08T03:51:29.414Z,12.9445
2023-05-08T03:54:30.712Z,12.9500
2023-05-08T03:55:31.942Z,12.9529
2023-05-08T03:56:32.671Z,12.9548
2023-05-08T03:57:32.745Z,12.9568
2023-05-08T03:58:33.623Z,12.9595
2023-05-08T03:59:33.761Z,12.9625
2023-05-08T04:00:34.570Z,12.9640
2023-05-08T04:01:35.725Z,12.9637
2023-05-08T04:02:36.708Z,12.9639
2023-05-08T04:03:36.789Z,12.9601
2023-05-08T04:04:38.076Z,12.9613
2023-05-08T04:05:38.279Z,12.9647
2023-05-08T04:06:49.356Z,12.9679
2023-05-08T04:07:43.330Z,12.9710
2023-05-08T04:09:43.083Z,12.9803
2023-05-08T04:10:44.664Z,12.9843
2023-05-08T04:12:44.413Z,12.9895
2023-05-08T04:13:45.905Z,12.9878
2023-05-08T04:14:47.007Z,12.9863
2023-05-08T04:15:48.049Z,12.9855
2023-05-08T04:16:50.156Z,12.9854
2023-05-08T04:17:50.199Z,12.9840
2023-05-08T04:18:50.564Z,12.9812
2023-05-08T04:19:51.257Z,12.9807
2023-05-08T04:21:51.643Z,12.9800
2023-05-08T04:23:52.581Z,12.9736
2023-05-08T04:24:52.830Z,12.9704
2023-05-08T04:25:53.865Z,12.9696
2023-05-08T04:27:54.134Z,12.9735
2023-05-08T04:29:55.512Z,12.9789
2023-05-08T04:30:55.940Z,12.9785
2023-05-08T04:31:56.794Z,12.9775
2023-05-08T04:32:57.761Z,12.9797
2023-05-08T04:33:57.830Z,12.9787
2023-05-08T04:34:58.767Z,12.9805
2023-05-08T04:37:00.272Z,12.9831
2023-05-08T04:39:01.081Z,12.9876
2023-05-08T04:41:01.242Z,12.9862
2023-05-08T04:43:02.139Z,12.9916
2023-05-08T04:44:02.888Z,12.9967
2023-05-08T04:45:05.278Z,13.0000
2023-05-08T04:46:06.933Z,13.0020
2023-05-08T04:48:07.766Z,13.0097
2023-05-08T04:49:09.453Z,13.0140
2023-05-08T04:50:10.049Z,13.0172
2023-05-08T04:51:10.228Z,13.0210
2023-05-08T04:52:11.487Z,13.0271
2023-05-08T04:53:12.432Z,13.0323
2023-05-08T04:54:12.685Z,13.0379
2023-05-08T04:55:13.963Z,13.0444
2023-05-08T04:57:13.879Z,13.0587
2023-05-08T04:59:16.060Z,13.0716
2023-05-08T05:00:15.456Z,13.0775
2023-05-08T05:01:15.926Z,13.0820
2023-05-08T05:02:17.095Z,13.0831
2023-05-08T05:03:17.651Z,13.0916
2023-05-08T05:04:18.948Z,13.0981
2023-05-08T05:05:21.007Z,13.1039
2023-05-08T05:06:28.524Z,13.1098
2023-05-08T05:07:22.440Z,13.1129
2023-05-08T05:09:13.086Z,13.1166
2023-05-08T05:11:14.521Z,13.1295
2023-05-08T05:13:15.221Z,13.1408
2023-05-08T05:15:15.799Z,13.1565
2023-05-08T05:17:16.906Z,13.1685
2023-05-08T05:19:17.834Z,13.1709
2023-05-08T05:20:18.769Z,13.1734
2023-05-08T05:21:19.911Z,13.1757
2023-05-08T05:22:20.576Z,13.1789
2023-05-08T05:23:21.850Z,13.1777
2023-05-08T05:25:22.036Z,13.1811
2023-05-08T05:26:22.397Z,13.1842
2023-05-08T05:27:23.503Z,13.1872
2023-05-08T05:28:23.684Z,13.1916
2023-05-08T05:29:24.820Z,13.1956
2023-05-08T05:30:25.465Z,13.2005
2023-05-08T05:31:27.418Z,13.2050
2023-05-08T05:32:27.406Z,13.2112
2023-05-08T05:33:28.315Z,13.2155
2023-05-08T05:34:29.664Z,13.2204
2023-05-08T05:36:30.530Z,13.2248
2023-05-08T05:38:30.389Z,13.2294
2023-05-08T05:39:30.885Z,13.2319
2023-05-08T05:40:32.230Z,13.2351
2023-05-08T05:42:33.051Z,13.2420
2023-05-08T05:44:33.312Z,13.2571
2023-05-08T05:45:36.690Z,13.2665
2023-05-08T05:46:37.403Z,13.2762
2023-05-08T05:47:38.515Z,13.2853
2023-05-08T05:48:38.746Z,13.2941
2023-05-08T05:49:40.871Z,13.3047
2023-05-08T05:51:41.278Z,13.3303
2023-05-08T05:52:42.943Z,13.3413
2023-05-08T05:53:43.803Z,13.3539
2023-05-08T05:56:45.774Z,13.3924
2023-05-08T05:59:47.109Z,13.4367
2023-05-08T06:00:47.732Z,13.4513
2023-05-08T06:01:47.804Z,13.4653
2023-05-08T06:02:49.041Z,13.4776
2023-05-08T06:03:49.485Z,13.4902
2023-05-08T06:04:50.317Z,13.5044
2023-05-08T06:05:50.366Z,13.5171
2023-05-08T06:06:51.396Z,13.5255
2023-05-08T06:07:51.978Z,13.5347
2023-05-08T06:08:53.440Z,13.5433
2023-05-08T06:09:53.702Z,13.5518
2023-05-08T06:10:54.550Z,13.5594
2023-05-08T06:11:55.529Z,13.5673
2023-05-08T06:12:55.979Z,13.5743
2023-05-08T06:13:57.094Z,13.5773
2023-05-08T06:14:57.727Z,13.5805
2023-05-08T06:16:02.711Z,13.5852
2023-05-08T06:16:58.968Z,13.5883
2023-05-08T06:17:59.759Z,13.5965
2023-05-08T06:19:00.511Z,13.6056
2023-05-08T06:20:00.824Z,13.6139
2023-05-08T06:21:01.917Z,13.6220
2023-05-08T06:22:03.728Z,13.6278
2023-05-08T06:23:04.308Z,13.6341
2023-05-08T06:24:04.948Z,13.6354
2023-05-08T06:25:06.130Z,13.6355
2023-05-08T06:26:07.298Z,13.6400
2023-05-08T06:27:07.664Z,13.6474
2023-05-08T06:28:08.012Z,13.6560
2023-05-08T06:29:08.244Z,13.6663
2023-05-08T06:30:08.425Z,13.6779
2023-05-08T06:31:09.009Z,13.6903
2023-05-08T06:32:09.554Z,13.7012
2023-05-08T06:33:10.291Z,13.7108
2023-05-08T06:34:10.880Z,13.7197
2023-05-08T06:35:11.089Z,13.7293
2023-05-08T06:36:11.177Z,13.7394
2023-05-08T06:37:11.358Z,13.7483
2023-05-08T06:38:11.483Z,13.7552
2023-05-08T06:39:11.726Z,13.7626
2023-05-08T06:40:13.084Z,13.7681
2023-05-08T06:41:15.184Z,13.7762
2023-05-08T06:42:14.122Z,13.7822
2023-05-08T06:43:14.423Z,13.7841
2023-05-08T06:44:14.556Z,13.7865
2023-05-08T06:45:16.100Z,13.7871
2023-05-08T06:46:15.826Z,13.7884
2023-05-08T06:47:16.507Z,13.7908
2023-05-08T06:48:17.093Z,13.7930
2023-05-08T06:49:17.556Z,13.7938
2023-05-08T06:50:17.861Z,13.7965
2023-05-08T06:51:18.171Z,13.7995
2023-05-08T06:52:18.361Z,13.8030
2023-05-08T06:53:18.470Z,13.8083
2023-05-08T06:54:18.552Z,13.8142
2023-05-08T06:55:19.502Z,13.8203
2023-05-08T06:56:19.697Z,13.8264
2023-05-08T06:57:20.089Z,13.8301
2023-05-08T06:58:20.295Z,13.8339
2023-05-08T06:59:21.099Z,13.8363
2023-05-08T07:00:21.511Z,13.8419
2023-05-08T07:01:21.783Z,13.8468
2023-05-08T07:02:22.590Z,13.8500
2023-05-08T07:03:23.210Z,13.8529
2023-05-08T07:04:23.571Z,13.8540
2023-05-08T07:05:24.728Z,13.8560
2023-05-08T07:06:24.908Z,13.8585
2023-05-08T07:07:25.283Z,13.8608
2023-05-08T07:08:25.985Z,13.8637
2023-05-08T07:09:26.428Z,13.8682
2023-05-08T07:10:26.811Z,13.8738
2023-05-08T07:11:26.927Z,13.8805
2023-05-08T07:12:27.249Z,13.8873
2023-05-08T07:13:28.249Z,13.8942
2023-05-08T07:14:28.758Z,13.9041
2023-05-08T07:15:30.142Z,13.9109
2023-05-08T07:16:31.280Z,13.9176
2023-05-08T07:17:32.026Z,13.9277
2023-05-08T07:18:32.329Z,13.9413
2023-05-08T07:19:33.191Z,13.9602
2023-05-08T07:20:33.753Z,13.9846
2023-05-08T07:21:34.110Z,14.0004
2023-05-08T07:22:34.441Z,14.0118
2023-05-08T07:23:34.693Z,14.0266
2023-05-08T07:24:34.781Z,14.0497
2023-05-08T07:25:35.002Z,14.0764
2023-05-08T07:26:35.014Z,14.1072
2023-05-08T07:27:35.202Z,14.1403
2023-05-08T07:28:35.336Z,14.1742
2023-05-08T07:29:35.717Z,14.2070
2023-05-08T07:30:35.797Z,14.2399
2023-05-08T07:31:36.255Z,14.2748
2023-05-08T07:32:36.759Z,14.3078
2023-05-08T07:33:37.108Z,14.3371
2023-05-08T07:34:37.397Z,14.3654
2023-05-08T07:35:38.678Z,14.3891
2023-05-08T07:36:38.930Z,14.4104
2023-05-08T07:37:55.599Z,14.4296
2023-05-08T07:39:18.845Z,14.4491
2023-05-08T07:40:11.338Z,14.4694
2023-05-08T07:41:11.519Z,14.4924
2023-05-08T07:42:12.671Z,14.5110
2023-05-08T07:43:13.225Z,14.5329
2023-05-08T07:44:13.674Z,14.5555
2023-05-08T07:45:14.613Z,14.5790
2023-05-08T07:46:14.515Z,14.6112
2023-05-08T07:47:15.613Z,14.6452
2023-05-08T07:48:21.125Z,14.6802
2023-05-08T07:49:20.947Z,14.7153
2023-05-08T07:51:20.062Z,14.7747
2023-05-08T07:52:20.973Z,14.8063
2023-05-08T07:53:22.809Z,14.8345
2023-05-08T07:54:26.718Z,14.8592
2023-05-08T07:56:25.049Z,14.9030
2023-05-08T07:57:24.952Z,14.9206
2023-05-08T07:58:25.871Z,14.9367
2023-05-08T07:59:27.264Z,14.9559
2023-05-08T08:00:28.316Z,14.9755
2023-05-08T08:02:29.739Z,15.0256
2023-05-08T08:04:31.266Z,15.0719
2023-05-08T08:05:32.657Z,15.0884
2023-05-08T08:06:32.596Z,15.1019
2023-05-08T08:08:34.097Z,15.1187
2023-05-08T08:09:34.148Z,15.1259
2023-05-08T08:10:34.119Z,15.1372
2023-05-08T08:13:37.299Z,15.1918
2023-05-08T08:15:37.331Z,15.2397
2023-05-08T08:16:37.778Z,15.2682
2023-05-08T08:17:38.118Z,15.2925
2023-05-08T08:18:39.442Z,15.3146
2023-05-08T08:19:40.049Z,15.3386
2023-05-08T08:20:41.010Z,15.3562
2023-05-08T08:21:41.081Z,15.3698
2023-05-08T08:22:41.424Z,15.3898
2023-05-08T08:23:41.877Z,15.4141
2023-05-08T08:24:42.252Z,15.4376
2023-05-08T08:25:43.167Z,15.4641
2023-05-08T08:26:43.569Z,15.4874
2023-05-08T08:27:43.819Z,15.5025
2023-05-08T08:28:44.219Z,15.5151
2023-05-08T08:29:44.673Z,15.5273
2023-05-08T08:30:44.909Z,15.5367
2023-05-08T08:31:45.623Z,15.5544
2023-05-08T08:32:46.798Z,15.5794
2023-05-08T08:33:47.708Z,15.6126
2023-05-08T08:34:48.137Z,15.6414
2023-05-08T08:35:48.616Z,15.6656
2023-05-08T08:36:48.909Z,15.6869
2023-05-08T08:37:49.115Z,15.7039
2023-05-08T08:38:50.225Z,15.7233
2023-05-08T08:39:50.195Z,15.7354
2023-05-08T08:40:50.575Z,15.7447
2023-05-08T08:41:50.810Z,15.7554
2023-05-08T08:42:51.116Z,15.7659
2023-05-08T08:43:51.336Z,15.7804
2023-05-08T08:44:51.886Z,15.7979
2023-05-08T08:45:52.092Z,15.8179
2023-05-08T08:46:52.364Z,15.8346
2023-05-08T08:47:53.428Z,15.8481
2023-05-08T08:48:53.678Z,15.8643
2023-05-08T08:49:54.054Z,15.8907
2023-05-08T08:50:55.310Z,15.9246
2023-05-08T08:51:55.611Z,15.9609
2023-05-08T08:52:55.968Z,15.9921
2023-05-08T08:53:56.327Z,16.0187
2023-05-08T08:54:56.618Z,16.0472
2023-05-08T08:55:57.083Z,16.0750
2023-05-08T08:56:57.605Z,16.1130
2023-05-08T08:57:57.766Z,16.1542
2023-05-08T08:58:58.224Z,16.1935
2023-05-08T08:59:58.831Z,16.2238
2023-05-08T09:00:59.478Z,16.2383
2023-05-08T09:02:00.236Z,16.2442
2023-05-08T09:03:01.391Z,16.2490
2023-05-08T09:04:01.359Z,16.2534
2023-05-08T09:05:02.123Z,16.2548
2023-05-08T09:06:03.238Z,16.2613
2023-05-08T09:07:03.910Z,16.2674
2023-05-08T09:08:04.108Z,16.2788
2023-05-08T09:09:04.543Z,16.3038
2023-05-08T09:10:04.864Z,16.3329
2023-05-08T09:11:05.153Z,16.3701
2023-05-08T09:12:05.790Z,16.4103
2023-05-08T09:13:06.135Z,16.4532
2023-05-08T09:14:07.361Z,16.4929
2023-05-08T09:15:07.856Z,16.5332
2023-05-08T09:16:09.466Z,16.5792
2023-05-08T09:17:10.717Z,16.6220
2023-05-08T09:18:11.282Z,16.6601
2023-05-08T09:19:11.784Z,16.6834
2023-05-08T09:20:12.167Z,16.6983
2023-05-08T09:21:12.333Z,16.7164
2023-05-08T09:22:12.589Z,16.7321
2023-05-08T09:23:12.912Z,16.7409
2023-05-08T09:24:13.386Z,16.7460
2023-05-08T09:25:14.034Z,16.7445
2023-05-08T09:26:14.302Z,16.7412
2023-05-08T09:27:14.926Z,16.7455
2023-05-08T09:28:15.368Z,16.7536
2023-05-08T09:29:15.802Z,16.7637
2023-05-08T09:30:16.716Z,16.7788
2023-05-08T09:31:17.000Z,16.8013
2023-05-08T09:32:17.422Z,16.8178
2023-05-08T09:33:18.069Z,16.8281
2023-05-08T09:34:19.225Z,16.8439
2023-05-08T09:35:19.421Z,16.8654
2023-05-08T09:36:19.926Z,16.8954
2023-05-08T09:37:20.282Z,16.9254
2023-05-08T09:38:20.464Z,16.9423
2023-05-08T09:39:20.861Z,16.9478
2023-05-08T09:40:21.269Z,16.9331
2023-05-08T09:41:22.013Z,16.8968
2023-05-08T09:42:22.273Z,16.8576
2023-05-08T09:43:22.779Z,16.8213
2023-05-08T09:44:23.251Z,16.7894
2023-05-08T09:45:24.275Z,16.7628
2023-05-08T09:46:24.857Z,16.7346
2023-05-08T09:47:25.897Z,16.7061
2023-05-08T09:48:26.530Z,16.6877
2023-05-08T09:49:26.905Z,16.6834
2023-05-08T09:50:28.116Z,16.6928
2023-05-08T09:51:28.755Z,16.7182
2023-05-08T09:52:29.144Z,16.7524
2023-05-08T09:53:29.624Z,16.7891
2023-05-08T09:54:30.016Z,16.8308
2023-05-08T09:55:30.295Z,16.8810
2023-05-08T09:56:30.748Z,16.9328
2023-05-08T09:57:31.161Z,16.9908
2023-05-08T09:58:31.963Z,17.0552
2023-05-08T09:59:34.250Z,17.1227
2023-05-08T10:00:32.756Z,17.1768
2023-05-08T10:01:33.338Z,17.2168
2023-05-08T10:02:33.974Z,17.2505
2023-05-08T10:03:35.101Z,17.2908
2023-05-08T10:04:36.010Z,17.3383
2023-05-08T10:05:36.574Z,17.4060
2023-05-08T10:06:36.848Z,17.4902
2023-05-08T10:07:37.307Z,17.5796
2023-05-08T10:08:37.786Z,17.6518
2023-05-08T10:09:49.714Z,17.7065
2023-05-08T10:10:39.331Z,17.7572
2023-05-08T10:11:39.794Z,17.7988
2023-05-08T10:12:40.038Z,17.8379
2023-05-08T10:13:40.996Z,17.8763
2023-05-08T10:14:43.123Z,17.9038
2023-05-08T10:15:43.078Z,17.9263
2023-05-08T10:16:43.907Z,17.9484
2023-05-08T10:17:44.824Z,17.9549
2023-05-08T10:18:45.187Z,17.9538
2023-05-08T10:19:45.725Z,17.9509
2023-05-08T10:20:46.714Z,17.9466
2023-05-08T10:21:47.193Z,17.9395
2023-05-08T10:22:47.427Z,17.9122
2023-05-08T10:23:47.806Z,17.8815
2023-05-08T10:24:48.129Z,17.8569
2023-05-08T10:25:48.606Z,17.8352
2023-05-08T10:27:05.109Z,17.8250
2023-05-08T10:27:51.138Z,17.8139
2023-05-08T10:28:51.450Z,17.8091
2023-05-08T10:29:51.938Z,17.7827
2023-05-08T10:30:52.376Z,17.7464
2023-05-08T10:31:53.249Z,17.7188
2023-05-08T10:32:53.887Z,17.7145
2023-05-08T10:33:54.463Z,17.7197
2023-05-08T10:34:54.594Z,17.7283
2023-05-08T10:35:54.905Z,17.7409
2023-05-08T10:36:55.890Z,17.7618
2023-05-08T10:37:56.412Z,17.7782
2023-05-08T10:38:56.879Z,17.7908
2023-05-08T10:39:57.181Z,17.8012
2023-05-08T10:40:57.785Z,17.8177
2023-05-08T10:41:58.316Z,17.8294
2023-05-08T10:42:58.728Z,17.8368
2023-05-08T10:44:01.072Z,17.8290
2023-05-08T10:45:00.047Z,17.8092
2023-05-08T10:46:00.712Z,17.8045
2023-05-08T10:47:01.387Z,17.8055
2023-05-08T10:48:02.083Z,17.8155
2023-05-08T10:49:02.745Z,17.8465
2023-05-08T10:50:02.943Z,17.8935
2023-05-08T10:51:04.078Z,17.9357
2023-05-08T10:52:04.295Z,17.9770
2023-05-08T10:53:04.856Z,18.0305
2023-05-08T10:54:05.311Z,18.0787
2023-05-08T10:55:05.976Z,18.1281
2023-05-08T10:56:06.164Z,18.1808
2023-05-08T10:58:26.735Z,18.3055
2023-05-08T10:59:27.649Z,18.3575
2023-05-08T11:00:28.400Z,18.3916
2023-05-08T11:01:28.669Z,18.4050
2023-05-08T11:02:29.710Z,18.4099
2023-05-08T11:03:32.627Z,18.4024
2023-05-08T11:04:31.487Z,18.4008
2023-05-08T11:05:32.157Z,18.3982
2023-05-08T11:06:32.626Z,18.4005
2023-05-08T11:07:33.299Z,18.4119
2023-05-08T11:08:33.825Z,18.4135
2023-05-08T11:09:34.179Z,18.4200
2023-05-08T11:10:34.944Z,18.4376
2023-05-08T11:11:35.611Z,18.4694
2023-05-08T11:12:36.177Z,18.5077
2023-05-08T11:13:37.138Z,18.5401
2023-05-08T11:14:37.536Z,18.5766
2023-05-08T11:15:38.120Z,18.6281
2023-05-08T11:16:39.130Z,18.6774
2023-05-08T11:17:40.321Z,18.6965
2023-05-08T11:18:49.549Z,18.7018
2023-05-08T11:19:46.403Z,18.6964
2023-05-08T11:20:47.449Z,18.6704
2023-05-08T11:21:48.006Z,18.6089
2023-05-08T11:22:48.585Z,18.5143
2023-05-08T11:23:48.814Z,18.4130
2023-05-08T11:24:49.342Z,18.3223
2023-05-08T11:25:49.878Z,18.2532
2023-05-08T11:26:50.434Z,18.1984
2023-05-08T11:27:50.969Z,18.1546
2023-05-08T11:28:51.539Z,18.1156
2023-05-08T11:29:52.193Z,18.0791
2023-05-08T11:30:52.982Z,18.0493
2023-05-08T11:31:54.107Z,18.0150
2023-05-08T11:32:54.970Z,17.9809
2023-05-08T11:33:55.584Z,17.9538
2023-05-08T11:34:56.923Z,17.9210
2023-05-08T11:35:57.582Z,17.8972
2023-05-08T11:36:58.182Z,17.8814
2023-05-08T11:37:58.609Z,17.8645
2023-05-08T11:38:59.229Z,17.8566
2023-05-08T11:39:59.862Z,17.8690
2023-05-08T11:41:00.563Z,17.8742
2023-05-08T11:42:00.972Z,17.8730
2023-05-08T11:43:01.481Z,17.8807
2023-05-08T11:44:02.042Z,17.9032
2023-05-08T11:45:02.922Z,17.9384
2023-05-08T11:46:03.515Z,17.9968
2023-05-08T11:47:04.614Z,18.0715
2023-05-08T11:48:05.617Z,18.1306
2023-05-08T11:49:06.173Z,18.1854
2023-05-08T11:50:06.376Z,18.2516
2023-05-08T11:51:06.986Z,18.3362
2023-05-08T11:52:07.562Z,18.3936
2023-05-08T11:53:08.162Z,18.4059
2023-05-08T11:54:08.540Z,18.3895
2023-05-08T11:55:08.499Z,18.3731
2023-05-08T11:56:09.097Z,18.3629
2023-05-08T11:57:09.595Z,18.3718
2023-05-08T11:58:09.871Z,18.3937
2023-05-08T11:59:10.612Z,18.4265
2023-05-08T12:00:11.617Z,18.4647
2023-05-08T12:01:11.701Z,18.5068
2023-05-08T12:02:12.115Z,18.5347
2023-05-08T12:03:12.738Z,18.5553
2023-05-08T12:04:13.593Z,18.5806
2023-05-08T12:05:14.202Z,18.6139
2023-05-08T12:06:14.991Z,18.6542
2023-05-08T12:07:15.622Z,18.6865
2023-05-08T12:08:16.192Z,18.7278
2023-05-08T12:09:17.207Z,18.7670
2023-05-08T12:10:18.156Z,18.7978
2023-05-08T12:11:17.483Z,18.8118
2023-05-08T12:12:18.804Z,18.8209
2023-05-08T12:13:20.196Z,18.8408
2023-05-08T12:14:20.383Z,18.8782
2023-05-08T12:15:21.465Z,18.9349
2023-05-08T12:16:23.032Z,19.0164
2023-05-08T12:17:23.409Z,19.1026
2023-05-08T12:18:23.805Z,19.1742
2023-05-08T12:19:24.623Z,19.2298
2023-05-08T12:20:25.294Z,19.2716
2023-05-08T12:21:26.521Z,19.3248
2023-05-08T12:22:27.596Z,19.4362
2023-05-08T12:23:28.842Z,19.7284
2023-05-08T12:24:29.935Z,20.3119
2023-05-08T12:25:30.420Z,20.9413
2023-05-08T12:26:31.690Z,21.4879
2023-05-08T12:27:32.762Z,21.8661
2023-05-08T12:28:33.980Z,22.1832
2023-05-08T12:29:34.921Z,22.4047
2023-05-08T12:33:36.159Z,23.5867
2023-05-08T12:34:37.438Z,23.8528
2023-05-08T12:35:38.522Z,24.1493
2023-05-08T12:36:39.683Z,24.4123
2023-05-08T12:37:40.859Z,24.6732
2023-05-08T12:38:41.967Z,24.8680
2023-05-08T12:39:43.157Z,24.8057
2023-05-08T12:40:43.409Z,24.6151
2023-05-08T12:41:44.668Z,24.3349
2023-05-08T12:42:44.705Z,23.9972
2023-05-08T12:43:45.936Z,23.6200
2023-05-08T12:44:47.092Z,23.2327
2023-05-08T12:45:48.262Z,22.8669
2023-05-08T13:03:02.634Z,19.3553
2023-05-08T13:04:03.681Z,19.2392
2023-05-08T13:05:03.670Z,19.1133
2023-05-08T13:06:04.844Z,19.0045
2023-05-08T13:07:06.141Z,18.8998
2023-05-08T13:08:07.353Z,18.7995
2023-05-08T13:09:08.586Z,18.7061
2023-05-08T13:10:09.974Z,18.6154
2023-05-08T13:11:10.160Z,18.5213
2023-05-08T13:12:11.429Z,18.4380
2023-05-08T13:13:11.444Z,18.3546
2023-05-08T13:14:11.497Z,18.2803
2023-05-08T13:15:11.689Z,18.2135
2023-05-08T13:16:11.890Z,18.1518
2023-05-08T13:17:12.113Z,18.0952
2023-05-08T13:18:13.736Z,18.0398
2023-05-08T13:19:14.027Z,17.9827
2023-05-08T13:20:14.198Z,17.9317
2023-05-08T13:21:14.435Z,17.8821
2023-05-08T13:22:14.381Z,17.8276
2023-05-08T13:23:15.670Z,17.7822
2023-05-08T13:24:16.990Z,17.7404
2023-05-08T13:25:18.249Z,17.7030
2023-05-08T13:26:19.563Z,17.6720
2023-05-08T13:27:20.701Z,17.6398
2023-05-08T13:28:22.212Z,17.6115
2023-05-08T13:29:23.459Z,17.5820
2023-05-08T13:30:23.598Z,17.5548
2023-05-08T13:31:23.604Z,17.5241
2023-05-08T13:32:23.924Z,17.4871
2023-05-08T13:33:24.042Z,17.4527
2023-05-08T13:34:25.214Z,17.4228
2023-05-08T13:35:26.328Z,17.3934
2023-05-08T13:36:27.538Z,17.3691
2023-05-08T13:37:28.807Z,17.3449
2023-05-08T13:38:29.930Z,17.3221
2023-05-08T13:39:31.135Z,17.3041
2023-05-08T13:40:32.372Z,17.2896
2023-05-08T13:41:33.558Z,17.2857
2023-05-08T13:42:34.765Z,17.2858
2023-05-08T13:43:35.848Z,17.2887
2023-05-08T13:44:37.025Z,17.2989
2023-05-08T13:45:37.825Z,17.3141
2023-05-08T13:46:38.002Z,17.3389
2023-05-08T13:47:39.213Z,17.3787
2023-05-08T13:48:40.755Z,17.4282
2023-05-08T13:49:41.974Z,17.4849
2023-05-08T13:50:43.149Z,17.5694
2023-05-08T13:51:52.023Z,17.6433